createdAt,value
2023-02-28T00:00:23.144Z,61.40
2023-02-28T00:01:45.042Z,66.90
2023-02-28T00:02:47.318Z,67.50
2023-02-28T00:03:49.867Z,60.90
2023-02-28T00:04:53.325Z,69.70
2023-02-28T00:05:54.951Z,69.10
2023-02-28T00:06:56.550Z,62.60
2023-02-28T00:07:58.082Z,62.70
2023-02-28T00:08:59.522Z,65.90
2023-02-28T00:10:01.539Z,66.10
2023-02-28T00:11:04.743Z,65.80
2023-02-28T00:12:10.411Z,68.50
2023-02-28T00:13:12.166Z,62.90
2023-02-28T00:14:13.658Z,65.60
2023-02-28T00:15:15.356Z,62.20
2023-02-28T00:16:20.630Z,63.40
2023-02-28T00:17:22.662Z,66.10
2023-02-28T00:18:24.124Z,62.20
2023-02-28T00:19:25.539Z,61.30
2023-02-28T00:20:27.379Z,57.90
2023-02-28T00:21:29.157Z,65.40
2023-02-28T00:22:31.136Z,60.90
2023-02-28T00:23:33.737Z,64.80
2023-02-28T00:24:35.342Z,68.40
2023-02-28T00:25:36.788Z,66.50
2023-02-28T00:26:38.406Z,63.00
2023-02-28T00:27:40.952Z,58.30
2023-02-28T00:28:42.855Z,67.00
2023-02-28T00:29:46.847Z,64.30
2023-02-28T00:30:48.486Z,60.30
2023-02-28T00:31:50.286Z,62.60
2023-02-28T00:32:51.840Z,60.50
2023-02-28T00:33:53.299Z,60.60
2023-02-28T00:34:56.539Z,61.10
2023-02-28T00:36:09.084Z,67.60
2023-02-28T00:37:12.560Z,65.60
2023-02-28T00:38:15.021Z,63.90
2023-02-28T00:39:16.684Z,62.90
2023-02-28T00:40:18.201Z,61.90
2023-02-28T00:41:19.777Z,63.10
2023-02-28T00:42:23.379Z,62.30
2023-02-28T00:43:25.050Z,60.70
2023-02-28T00:44:26.677Z,60.20
2023-02-28T00:45:28.458Z,64.80
2023-02-28T00:46:29.993Z,55.70
2023-02-28T00:47:33.545Z,61.90
2023-02-28T00:48:35.741Z,63.20
2023-02-28T00:49:38.486Z,56.10
2023-02-28T00:50:39.920Z,54.00
2023-02-28T00:51:41.360Z,58.10
2023-02-28T00:52:42.893Z,61.10
2023-02-28T00:53:44.533Z,60.10
2023-02-28T00:54:46.074Z,59.30
2023-02-28T00:55:50.910Z,66.50
2023-02-28T00:56:52.464Z,67.90
2023-02-28T00:57:54.235Z,62.90
2023-02-28T00:58:55.852Z,63.20
2023-02-28T00:59:58.307Z,63.40
2023-02-28T01:01:00.002Z,60.20
2023-02-28T01:02:01.580Z,59.20
2023-02-28T01:03:03.299Z,59.80
2023-02-28T01:04:05.307Z,63.20
2023-02-28T01:05:07.334Z,60.50
2023-02-28T01:06:08.895Z,59.70
2023-02-28T01:07:10.356Z,60.10
2023-02-28T01:08:12.578Z,59.20
2023-02-28T01:09:14.317Z,57.20
2023-02-28T01:10:17.266Z,61.40
2023-02-28T01:11:19.064Z,61.90
2023-02-28T01:12:20.614Z,62.40
2023-02-28T01:13:23.512Z,60.40
2023-02-28T01:14:25.273Z,60.10
2023-02-28T01:15:26.887Z,61.00
2023-02-28T01:16:28.544Z,62.70
2023-02-28T01:17:30.061Z,59.30
2023-02-28T01:18:31.798Z,65.50
2023-02-28T01:19:33.777Z,62.10
2023-02-28T01:20:37.556Z,56.70
2023-02-28T01:21:39.034Z,60.00
2023-02-28T01:22:40.846Z,61.20
2023-02-28T01:23:43.905Z,60.00
2023-02-28T01:24:48.010Z,61.30
2023-02-28T01:25:53.127Z,60.40
2023-02-28T01:26:54.683Z,64.90
2023-02-28T01:27:56.754Z,67.40
2023-02-28T01:28:58.379Z,58.60
2023-02-28T01:30:00.743Z,57.90
2023-02-28T01:31:02.565Z,57.50
2023-02-28T01:32:04.445Z,59.60
2023-02-28T01:33:06.006Z,55.90
2023-02-28T01:34:07.665Z,59.70
2023-02-28T01:35:09.316Z,57.40
2023-02-28T01:36:14.003Z,61.70
2023-02-28T01:37:15.519Z,53.70
2023-02-28T01:38:23.323Z,55.40
2023-02-28T01:39:26.842Z,53.20
2023-02-28T01:40:28.548Z,54.80
2023-02-28T01:41:33.191Z,52.90
2023-02-28T01:42:35.756Z,54.70
2023-02-28T01:43:43.722Z,53.00
2023-02-28T01:45:28.680Z,52.60
2023-02-28T01:46:35.608Z,58.80
2023-02-28T01:47:42.011Z,60.40
2023-02-28T01:49:07.512Z,57.90
2023-02-28T01:50:23.267Z,54.50
2023-02-28T01:51:34.656Z,54.80
2023-02-28T01:52:36.799Z,54.60
2023-02-28T01:53:44.657Z,59.00
2023-02-28T01:54:54.456Z,55.30
2023-02-28T01:55:56.632Z,52.80
2023-02-28T01:57:20.707Z,50.60
2023-02-28T01:58:22.871Z,48.40
2023-02-28T01:59:46.818Z,49.30
2023-02-28T02:00:49.113Z,50.50
2023-02-28T02:01:50.756Z,48.50
2023-02-28T02:02:58.417Z,52.20
2023-02-28T02:04:02.842Z,51.00
2023-02-28T02:05:07.798Z,52.40
2023-02-28T02:06:09.289Z,53.00
2023-02-28T02:07:13.122Z,53.60
2023-02-28T02:08:22.106Z,48.80
2023-02-28T02:09:23.839Z,54.40
2023-02-28T02:10:31.847Z,53.60
2023-02-28T02:11:35.684Z,46.30
2023-02-28T02:13:02.605Z,49.50
2023-02-28T02:14:16.086Z,47.80
2023-02-28T02:15:34.393Z,47.90
2023-02-28T02:17:05.298Z,46.50
2023-02-28T02:19:42.228Z,52.30
2023-02-28T02:21:11.336Z,49.00
2023-02-28T02:22:28.816Z,50.90
2023-02-28T02:24:08.918Z,49.70
2023-02-28T02:25:26.192Z,43.50
2023-02-28T02:26:42.794Z,42.30
2023-02-28T02:28:21.305Z,44.80
2023-02-28T02:29:43.073Z,40.40
2023-02-28T02:31:46.085Z,43.50
2023-02-28T02:32:56.737Z,43.20
2023-02-28T02:34:25.428Z,46.30
2023-02-28T02:35:52.859Z,45.30
2023-02-28T02:37:09.228Z,43.20
2023-02-28T02:38:26.906Z,46.40
2023-02-28T02:39:37.187Z,46.10
2023-02-28T02:40:47.331Z,44.40
2023-02-28T02:41:51.804Z,43.60
2023-02-28T02:43:02.482Z,45.40
2023-02-28T02:44:28.588Z,45.00
2023-02-28T02:45:38.256Z,45.20
2023-02-28T02:46:45.133Z,44.30
2023-02-28T02:47:48.428Z,43.30
2023-02-28T02:48:53.473Z,47.10
2023-02-28T02:49:59.636Z,44.00
2023-02-28T02:51:12.082Z,42.70
2023-02-28T02:52:18.923Z,43.20
2023-02-28T02:53:27.318Z,43.00
2023-02-28T02:54:32.481Z,41.90
2023-02-28T02:55:39.728Z,42.90
2023-02-28T02:56:43.741Z,39.80
2023-02-28T02:57:54.929Z,40.10
2023-02-28T02:59:03.333Z,40.40
2023-02-28T03:00:09.117Z,40.30
2023-02-28T03:01:18.133Z,39.30
2023-02-28T03:02:23.527Z,40.50
2023-02-28T03:03:31.867Z,37.30
2023-02-28T03:04:38.908Z,40.30
2023-02-28T03:05:47.746Z,31.70
2023-02-28T03:06:55.204Z,34.30
2023-02-28T03:07:56.812Z,36.00
2023-02-28T03:09:00.010Z,33.10
2023-02-28T03:10:01.688Z,38.60
2023-02-28T03:11:06.346Z,40.80
2023-02-28T03:12:12.871Z,38.30
2023-02-28T03:13:35.363Z,36.00
2023-02-28T03:15:01.744Z,36.80
2023-02-28T03:16:28.119Z,37.40
2023-02-28T03:17:38.742Z,36.50
2023-02-28T03:20:19.635Z,34.70
2023-02-28T03:21:53.438Z,32.80
2023-02-28T03:23:19.890Z,31.50
2023-02-28T03:24:33.509Z,34.30
2023-02-28T03:25:59.654Z,33.40
2023-02-28T03:27:21.624Z,33.80
2023-02-28T03:28:38.006Z,33.70
2023-02-28T03:29:51.717Z,33.70
2023-02-28T03:31:04.153Z,32.10
2023-02-28T03:32:26.200Z,31.30
2023-02-28T03:33:36.509Z,29.70
2023-02-28T03:34:43.787Z,30.40
2023-02-28T03:35:56.382Z,32.10
2023-02-28T03:37:04.751Z,31.80
2023-02-28T03:38:19.825Z,27.10
2023-02-28T03:39:27.314Z,32.40
2023-02-28T03:40:33.420Z,31.50
2023-02-28T03:41:46.753Z,34.30
2023-02-28T03:43:00.244Z,33.90
2023-02-28T03:44:09.590Z,34.80
2023-02-28T03:45:15.282Z,31.80
2023-02-28T03:46:21.679Z,31.70
2023-02-28T03:47:29.838Z,28.50
2023-02-28T03:48:38.849Z,31.60
2023-02-28T03:49:46.044Z,28.10
2023-02-28T03:50:56.061Z,29.90
2023-02-28T03:52:01.811Z,31.10
2023-02-28T03:53:09.591Z,33.20
2023-02-28T03:54:18.440Z,31.20
2023-02-28T03:55:21.262Z,28.40
2023-02-28T03:56:31.557Z,30.30
2023-02-28T03:57:59.409Z,32.20
2023-02-28T03:59:07.344Z,31.00
2023-02-28T04:00:29.198Z,28.30
2023-02-28T04:01:41.919Z,32.10
2023-02-28T04:02:43.872Z,29.00
2023-02-28T04:03:45.631Z,30.10
2023-02-28T04:04:48.654Z,29.20
2023-02-28T04:05:54.968Z,27.80
2023-02-28T04:07:07.943Z,25.80
2023-02-28T04:08:09.382Z,29.60
2023-02-28T04:09:13.594Z,28.20
2023-02-28T04:10:16.746Z,24.20
2023-02-28T04:11:33.390Z,24.90
2023-02-28T04:12:34.914Z,23.60
2023-02-28T04:13:36.446Z,21.40
2023-02-28T04:14:38.020Z,21.80
2023-02-28T04:15:39.609Z,20.90
2023-02-28T04:16:42.485Z,19.30
2023-02-28T04:17:44.172Z,26.90
2023-02-28T04:18:45.652Z,20.10
2023-02-28T04:19:47.361Z,21.10
2023-02-28T04:20:48.996Z,18.30
2023-02-28T04:21:52.248Z,21.00
2023-02-28T04:22:53.818Z,20.60
2023-02-28T04:23:55.838Z,17.20
2023-02-28T04:24:57.351Z,17.80
2023-02-28T04:25:59.285Z,21.80
2023-02-28T04:27:01.514Z,19.90
2023-02-28T04:28:03.094Z,21.00
2023-02-28T04:29:05.945Z,19.10
2023-02-28T04:30:08.100Z,21.90
2023-02-28T04:31:12.249Z,17.80
2023-02-28T04:32:13.920Z,19.00
2023-02-28T04:33:15.455Z,22.20
2023-02-28T04:34:19.240Z,18.50
2023-02-28T04:35:20.674Z,21.30
2023-02-28T04:36:23.565Z,22.40
2023-02-28T04:37:29.020Z,21.30
2023-02-28T04:38:33.513Z,20.70
2023-02-28T04:39:36.670Z,24.20
2023-02-28T04:40:38.395Z,27.80
2023-02-28T04:41:39.994Z,23.20
2023-02-28T04:42:41.508Z,24.70
2023-02-28T04:43:43.151Z,25.00
2023-02-28T04:44:44.644Z,24.00
2023-02-28T04:45:46.303Z,27.50
2023-02-28T04:46:49.179Z,24.40
2023-02-28T04:47:50.698Z,23.70
2023-02-28T04:48:52.230Z,26.00
2023-02-28T04:49:53.917Z,25.50
2023-02-28T04:50:55.648Z,24.50
2023-02-28T04:51:57.461Z,26.60
2023-02-28T04:52:59.070Z,24.30
2023-02-28T04:54:00.588Z,33.10
2023-02-28T04:55:02.133Z,25.80
2023-02-28T04:56:04.870Z,28.20
2023-02-28T04:57:06.525Z,27.40
2023-02-28T04:58:09.998Z,23.10
2023-02-28T04:59:11.651Z,28.30
2023-02-28T05:00:15.628Z,26.10
2023-02-28T05:01:22.201Z,24.70
2023-02-28T05:02:24.145Z,26.10
2023-02-28T05:03:27.776Z,23.00
2023-02-28T05:04:29.615Z,27.80
2023-02-28T05:05:31.223Z,24.20
2023-02-28T05:06:33.552Z,28.40
2023-02-28T05:07:35.533Z,26.40
2023-02-28T05:08:37.107Z,24.60
2023-02-28T05:09:38.672Z,25.30
2023-02-28T05:10:40.182Z,27.60
2023-02-28T05:11:42.118Z,28.00
2023-02-28T05:12:43.802Z,27.20
2023-02-28T05:13:46.176Z,25.30
2023-02-28T05:14:47.707Z,27.90
2023-02-28T05:15:49.739Z,25.30
2023-02-28T05:16:51.448Z,24.10
2023-02-28T05:17:53.198Z,22.60
2023-02-28T05:18:54.891Z,23.20
2023-02-28T05:20:06.460Z,24.70
2023-02-28T05:21:26.663Z,23.10
2023-02-28T05:22:28.690Z,23.40
2023-02-28T05:23:30.432Z,25.30
2023-02-28T05:24:32.352Z,24.70
2023-02-28T05:25:33.887Z,24.90
2023-02-28T05:26:41.275Z,22.90
2023-02-28T05:27:42.975Z,21.50
2023-02-28T05:28:44.503Z,21.30
2023-02-28T05:29:46.081Z,21.30
2023-02-28T05:30:47.760Z,23.70
2023-02-28T05:31:49.669Z,23.80
2023-02-28T05:32:52.073Z,26.10
2023-02-28T05:33:53.852Z,22.00
2023-02-28T05:34:55.396Z,22.70
2023-02-28T05:35:57.000Z,25.00
2023-02-28T05:36:58.604Z,24.70
2023-02-28T05:38:00.284Z,22.90
2023-02-28T05:39:02.031Z,25.10
2023-02-28T05:40:10.510Z,25.50
2023-02-28T05:41:12.106Z,26.10
2023-02-28T05:42:13.589Z,27.70
2023-02-28T05:43:15.619Z,28.00
2023-02-28T05:44:17.092Z,26.20
2023-02-28T05:45:18.580Z,26.80
2023-02-28T05:46:20.348Z,26.90
2023-02-28T05:47:21.820Z,25.90
2023-02-28T05:48:23.660Z,29.10
2023-02-28T05:49:25.358Z,28.80
2023-02-28T05:50:26.936Z,26.00
2023-02-28T05:51:29.174Z,23.70
2023-02-28T05:52:30.862Z,26.30
2023-02-28T05:53:33.337Z,24.50
2023-02-28T05:54:35.381Z,27.50
2023-02-28T05:55:37.819Z,26.40
2023-02-28T05:56:41.012Z,23.50
2023-02-28T05:57:42.800Z,21.80
2023-02-28T05:58:44.436Z,22.10
2023-02-28T05:59:45.952Z,21.90
2023-02-28T06:00:48.160Z,19.80
2023-02-28T06:01:50.097Z,19.60
2023-02-28T06:02:53.678Z,19.40
2023-02-28T06:03:55.360Z,17.90
2023-02-28T06:04:56.947Z,19.70
2023-02-28T06:05:59.105Z,18.10
2023-02-28T06:07:02.253Z,15.50
2023-02-28T06:08:04.997Z,16.30
2023-02-28T06:09:07.195Z,15.50
2023-02-28T06:10:11.001Z,18.00
2023-02-28T06:11:12.970Z,19.20
2023-02-28T06:12:14.620Z,17.40
2023-02-28T06:13:16.236Z,16.70
2023-02-28T06:14:19.397Z,16.00
2023-02-28T06:15:21.314Z,18.00
2023-02-28T06:16:24.246Z,18.20
2023-02-28T06:17:26.089Z,19.50
2023-02-28T06:18:27.843Z,18.40
2023-02-28T06:19:30.560Z,18.70
2023-02-28T06:20:32.357Z,18.10
2023-02-28T06:21:33.922Z,17.40
2023-02-28T06:22:36.652Z,16.10
2023-02-28T06:23:38.234Z,19.10
2023-02-28T06:24:39.853Z,18.20
2023-02-28T06:25:45.879Z,17.20
2023-02-28T06:26:47.745Z,15.50
2023-02-28T06:27:49.659Z,16.30
2023-02-28T06:28:51.453Z,15.40
2023-02-28T06:29:56.356Z,16.00
2023-02-28T06:30:58.368Z,15.50
2023-02-28T06:32:00.175Z,13.90
2023-02-28T06:33:01.750Z,14.10
2023-02-28T06:34:03.351Z,15.00
2023-02-28T06:35:05.241Z,16.30
2023-02-28T06:36:08.080Z,13.60
2023-02-28T06:37:09.679Z,14.20
2023-02-28T06:38:11.214Z,11.70
2023-02-28T06:39:12.733Z,12.60
2023-02-28T06:40:15.030Z,11.60
2023-02-28T06:41:16.724Z,13.90
2023-02-28T06:42:18.313Z,13.90
2023-02-28T06:43:20.009Z,11.80
2023-02-28T06:44:22.129Z,12.40
2023-02-28T06:45:23.675Z,10.70
2023-02-28T06:46:25.275Z,12.60
2023-02-28T06:47:26.912Z,12.80
2023-02-28T06:48:29.005Z,11.50
2023-02-28T06:49:35.200Z,11.30
2023-02-28T06:50:37.576Z,14.40
2023-02-28T06:51:41.927Z,17.30
2023-02-28T06:52:43.442Z,13.80
2023-02-28T06:53:45.180Z,13.00
2023-02-28T06:54:46.955Z,13.10
2023-02-28T06:55:48.413Z,14.40
2023-02-28T06:56:49.993Z,12.10
2023-02-28T06:57:51.506Z,15.30
2023-02-28T06:58:56.466Z,11.60
2023-02-28T07:00:03.615Z,14.10
2023-02-28T07:01:06.380Z,14.40
2023-02-28T07:02:08.568Z,12.50
2023-02-28T07:03:11.261Z,10.50
2023-02-28T07:04:13.429Z,12.10
2023-02-28T07:05:14.902Z,12.80
2023-02-28T07:06:18.222Z,10.40
2023-02-28T07:07:19.865Z,9.80
2023-02-28T07:08:21.242Z,12.00
2023-02-28T07:09:23.340Z,11.90
2023-02-28T07:10:25.093Z,10.60
2023-02-28T07:11:28.192Z,11.00
2023-02-28T07:12:30.363Z,10.60
2023-02-28T07:13:32.247Z,10.60
2023-02-28T07:14:33.672Z,11.30
2023-02-28T07:15:38.476Z,11.60
2023-02-28T07:16:41.612Z,9.60
2023-02-28T07:17:43.995Z,10.80
2023-02-28T07:18:45.634Z,9.40
2023-02-28T07:19:47.367Z,10.50
2023-02-28T07:20:48.948Z,9.50
2023-02-28T07:21:50.406Z,11.00
2023-02-28T07:22:56.581Z,11.00
2023-02-28T07:23:58.246Z,10.30
2023-02-28T07:24:59.722Z,10.40
2023-02-28T07:26:01.488Z,8.90
2023-02-28T07:27:03.309Z,11.10
2023-02-28T07:28:05.069Z,11.40
2023-02-28T07:29:06.539Z,10.80
2023-02-28T07:30:08.532Z,10.40
2023-02-28T07:31:11.144Z,10.80
2023-02-28T07:32:12.797Z,9.40
2023-02-28T07:33:14.433Z,9.80
2023-02-28T07:34:16.066Z,12.90
2023-02-28T07:35:17.693Z,10.60
2023-02-28T07:36:19.117Z,11.40
2023-02-28T07:37:20.835Z,10.10
2023-02-28T07:38:22.442Z,10.70
2023-02-28T07:39:24.112Z,13.20
2023-02-28T07:40:26.345Z,12.20
2023-02-28T07:41:28.134Z,10.10
2023-02-28T07:42:29.838Z,11.00
2023-02-28T07:43:33.153Z,12.30
2023-02-28T07:44:34.750Z,9.50
2023-02-28T07:45:36.387Z,10.30
2023-02-28T07:46:38.735Z,10.70
2023-02-28T07:47:42.017Z,14.30
2023-02-28T07:48:44.636Z,10.70
2023-02-28T07:49:46.102Z,9.90
2023-02-28T07:50:55.853Z,12.00
2023-02-28T07:51:57.425Z,12.30
2023-02-28T07:52:59.722Z,9.60
2023-02-28T07:54:01.385Z,11.10
2023-02-28T07:55:03.239Z,11.30
2023-02-28T07:56:05.358Z,10.30
2023-02-28T07:57:06.910Z,9.10
2023-02-28T07:58:08.438Z,14.50
2023-02-28T07:59:10.127Z,10.40
2023-02-28T08:00:13.961Z,11.20
2023-02-28T08:01:15.830Z,11.30
2023-02-28T08:02:19.034Z,9.30
2023-02-28T08:03:22.197Z,11.50
2023-02-28T08:04:23.835Z,8.10
2023-02-28T08:05:25.475Z,8.60
2023-02-28T08:06:27.010Z,9.90
2023-02-28T08:07:28.520Z,8.00
2023-02-28T08:08:31.547Z,10.90
2023-02-28T08:09:34.393Z,10.50
2023-02-28T08:10:36.468Z,9.90
2023-02-28T08:11:38.018Z,9.90
2023-02-28T08:12:39.465Z,8.70
2023-02-28T08:13:42.611Z,11.50
2023-02-28T08:14:44.158Z,10.80
2023-02-28T08:15:47.700Z,8.30
2023-02-28T08:16:49.247Z,10.20
2023-02-28T08:17:50.701Z,12.00
2023-02-28T08:18:53.154Z,10.80
2023-02-28T08:19:54.846Z,11.90
2023-02-28T08:20:57.762Z,9.50
2023-02-28T08:21:59.172Z,10.60
2023-02-28T08:23:00.668Z,10.10
2023-02-28T08:24:02.227Z,16.30
2023-02-28T08:25:04.237Z,12.70
2023-02-28T08:26:05.799Z,13.10
2023-02-28T08:27:07.232Z,15.40
2023-02-28T08:28:08.819Z,15.70
2023-02-28T08:29:10.340Z,15.60
2023-02-28T08:30:13.476Z,14.90
2023-02-28T08:31:17.246Z,14.60
2023-02-28T08:32:29.540Z,14.00
2023-02-28T08:33:31.756Z,13.90
2023-02-28T08:34:34.070Z,14.60
2023-02-28T08:35:37.480Z,13.50
2023-02-28T08:36:39.999Z,14.10
2023-02-28T08:37:41.543Z,13.50
2023-02-28T08:38:43.104Z,13.30
2023-02-28T08:39:44.679Z,11.90
2023-02-28T08:40:46.292Z,12.00
2023-02-28T08:41:51.151Z,12.20
2023-02-28T08:42:55.037Z,12.90
2023-02-28T08:43:56.660Z,13.80
2023-02-28T08:44:58.341Z,14.70
2023-02-28T08:46:00.043Z,11.90
2023-02-28T08:47:01.628Z,12.20
2023-02-28T08:48:03.511Z,11.00
2023-02-28T08:49:05.043Z,12.30
2023-02-28T08:50:07.559Z,10.50
2023-02-28T08:51:12.511Z,13.40
2023-02-28T08:52:14.045Z,11.40
2023-02-28T08:53:15.757Z,14.20
2023-02-28T08:54:19.657Z,15.60
2023-02-28T08:55:21.303Z,14.00
2023-02-28T08:56:22.870Z,12.20
2023-02-28T08:57:26.531Z,13.50
2023-02-28T08:58:28.570Z,13.50
2023-02-28T08:59:30.279Z,13.10
2023-02-28T09:00:32.444Z,15.40
2023-02-28T09:01:34.319Z,12.60
2023-02-28T09:02:36.222Z,13.10
2023-02-28T09:03:38.248Z,12.80
2023-02-28T09:04:39.675Z,15.00
2023-02-28T09:05:41.323Z,13.50
2023-02-28T09:06:42.874Z,15.30
2023-02-28T09:07:44.449Z,16.30
2023-02-28T09:08:46.193Z,13.10
2023-02-28T09:09:57.995Z,12.20
2023-02-28T09:11:01.635Z,16.90
2023-02-28T09:12:05.431Z,13.10
2023-02-28T09:13:07.295Z,15.60
2023-02-28T09:14:08.829Z,16.20
2023-02-28T09:15:10.958Z,16.10
2023-02-28T09:16:15.447Z,17.60
2023-02-28T09:17:17.760Z,20.30
2023-02-28T09:18:19.740Z,15.20
2023-02-28T09:19:21.176Z,15.80
2023-02-28T09:20:22.658Z,18.10
2023-02-28T09:21:24.400Z,16.70
2023-02-28T09:22:25.840Z,16.50
2023-02-28T09:23:27.381Z,14.80
2023-02-28T09:24:28.902Z,16.10
2023-02-28T09:25:30.342Z,13.90
2023-02-28T09:26:35.395Z,13.50
2023-02-28T09:27:45.915Z,15.20
2023-02-28T09:28:47.548Z,15.50
2023-02-28T09:29:49.058Z,16.50
2023-02-28T09:30:54.315Z,14.40
2023-02-28T09:31:59.010Z,14.40
2023-02-28T09:33:00.654Z,13.00
2023-02-28T09:34:02.329Z,14.40
2023-02-28T09:35:04.631Z,12.00
2023-02-28T09:36:06.736Z,14.60
2023-02-28T09:37:08.213Z,15.40
2023-02-28T09:38:10.555Z,17.70
2023-02-28T09:39:15.566Z,14.10
2023-02-28T09:40:18.382Z,11.30
2023-02-28T09:41:25.974Z,14.90
2023-02-28T09:42:33.929Z,15.10
2023-02-28T09:43:40.495Z,15.60
2023-02-28T09:44:47.170Z,12.90
2023-02-28T09:45:58.942Z,14.80
2023-02-28T09:47:45.529Z,10.60
2023-02-28T09:48:49.768Z,13.10
2023-02-28T09:49:51.443Z,13.20
2023-02-28T09:51:01.130Z,15.80
2023-02-28T09:52:12.317Z,13.80
2023-02-28T09:53:27.494Z,13.70
2023-02-28T09:54:32.393Z,13.10
2023-02-28T09:55:46.571Z,12.60
2023-02-28T09:56:54.395Z,10.50
2023-02-28T09:57:57.859Z,12.00
2023-02-28T09:59:06.097Z,11.60
2023-02-28T10:00:19.221Z,13.50
2023-02-28T10:01:32.384Z,16.00
2023-02-28T10:03:01.007Z,13.60
2023-02-28T10:04:16.495Z,16.20
2023-02-28T10:05:49.984Z,11.40
2023-02-28T10:06:53.274Z,10.90
2023-02-28T10:08:08.611Z,10.90
2023-02-28T10:09:25.149Z,11.90
2023-02-28T10:10:33.202Z,11.60
2023-02-28T10:11:38.050Z,9.90
2023-02-28T10:12:43.723Z,10.90
2023-02-28T10:14:01.755Z,10.10
2023-02-28T10:15:04.535Z,10.00
2023-02-28T10:16:10.897Z,10.20
2023-02-28T10:17:20.226Z,12.30
2023-02-28T10:18:27.772Z,9.50
2023-02-28T10:19:43.291Z,8.90
2023-02-28T10:20:45.511Z,9.40
2023-02-28T10:21:55.584Z,12.70
2023-02-28T10:23:09.009Z,10.90
2023-02-28T10:24:23.653Z,8.40
2023-02-28T10:25:28.794Z,10.90
2023-02-28T10:26:32.706Z,8.50
2023-02-28T10:27:34.568Z,10.00
2023-02-28T10:28:36.503Z,8.80
2023-02-28T10:29:44.086Z,9.40
2023-02-28T10:30:51.916Z,9.20
2023-02-28T10:31:53.644Z,10.10
2023-02-28T10:32:55.672Z,9.90
2023-02-28T10:33:57.422Z,10.80
2023-02-28T10:35:34.173Z,10.00
2023-02-28T10:36:36.368Z,11.60
2023-02-28T10:37:39.522Z,8.00
2023-02-28T10:38:41.368Z,10.30
2023-02-28T10:39:46.216Z,10.90
2023-02-28T10:40:48.419Z,9.40
2023-02-28T10:41:50.253Z,10.00
2023-02-28T10:42:57.278Z,8.60
2023-02-28T10:44:21.686Z,8.70
2023-02-28T10:45:25.064Z,9.30
2023-02-28T10:46:34.562Z,9.60
2023-02-28T10:47:54.016Z,8.80
2023-02-28T10:49:06.982Z,11.10
2023-02-28T10:50:46.861Z,10.00
2023-02-28T10:51:58.728Z,7.50
2023-02-28T10:53:28.292Z,9.20
2023-02-28T10:54:38.082Z,10.70
2023-02-28T10:55:39.808Z,9.30
2023-02-28T10:56:42.075Z,10.40
2023-02-28T10:57:44.134Z,9.40
2023-02-28T10:58:51.529Z,8.70
2023-02-28T11:00:05.977Z,10.10
2023-02-28T11:01:14.498Z,7.10
2023-02-28T11:03:36.061Z,7.70
2023-02-28T11:04:39.789Z,8.10
2023-02-28T11:05:42.852Z,8.80
2023-02-28T11:06:44.887Z,7.40
2023-02-28T11:07:53.737Z,9.40
2023-02-28T11:09:00.837Z,10.00
2023-02-28T11:10:04.562Z,8.80
2023-02-28T11:11:08.186Z,9.70
2023-02-28T11:12:23.678Z,9.80
2023-02-28T11:13:32.306Z,7.80
2023-02-28T11:14:48.336Z,7.30
2023-02-28T11:15:56.689Z,9.60
2023-02-28T11:17:12.158Z,6.30
2023-02-28T11:18:13.841Z,7.70
2023-02-28T11:19:26.119Z,8.20
2023-02-28T11:20:32.032Z,7.70
2023-02-28T11:21:40.554Z,8.20
2023-02-28T11:22:46.634Z,8.00
2023-02-28T11:23:51.553Z,8.80
2023-02-28T11:24:55.416Z,8.40
2023-02-28T11:26:00.281Z,8.10
2023-02-28T11:27:02.348Z,11.20
2023-02-28T11:28:36.072Z,7.60
2023-02-28T11:29:47.605Z,8.10
2023-02-28T11:31:12.088Z,9.80
2023-02-28T11:32:17.053Z,9.80
2023-02-28T11:33:32.230Z,7.90
2023-02-28T11:34:33.905Z,7.00
2023-02-28T11:35:39.831Z,8.10
2023-02-28T11:36:44.882Z,6.70
2023-02-28T11:37:46.496Z,8.90
2023-02-28T11:38:49.971Z,7.10
2023-02-28T11:39:51.516Z,9.20
2023-02-28T11:40:56.113Z,5.60
2023-02-28T11:42:06.657Z,6.40
2023-02-28T11:45:01.621Z,6.20
2023-02-28T11:46:06.107Z,6.00
2023-02-28T11:47:17.691Z,5.20
2023-02-28T11:48:35.101Z,6.40
2023-02-28T11:50:04.322Z,5.40
2023-02-28T11:51:32.665Z,5.70
2023-02-28T11:52:45.853Z,5.80
2023-02-28T11:53:50.191Z,5.60
2023-02-28T11:55:37.068Z,4.20
2023-02-28T11:56:47.227Z,6.60
2023-02-28T11:58:03.508Z,5.40
2023-02-28T11:59:36.296Z,7.10
2023-02-28T12:01:02.181Z,7.10
2023-02-28T12:02:09.536Z,5.70
2023-02-28T12:03:29.372Z,5.50
2023-02-28T12:04:37.033Z,5.90
2023-02-28T12:05:46.575Z,7.30
2023-02-28T12:07:04.074Z,5.50
2023-02-28T12:08:16.369Z,12.40
2023-02-28T12:09:36.468Z,5.00
2023-02-28T12:10:52.720Z,7.00
2023-02-28T12:12:01.737Z,5.80
2023-02-28T12:13:24.650Z,6.60
2023-02-28T12:14:55.458Z,6.60
2023-02-28T12:16:12.547Z,5.70
2023-02-28T12:17:23.083Z,6.70
2023-02-28T12:19:46.373Z,4.30
2023-02-28T12:20:57.218Z,7.10
2023-02-28T12:22:14.181Z,5.00
2023-02-28T12:23:34.804Z,4.70
2023-02-28T12:24:43.373Z,5.00
2023-02-28T12:26:02.721Z,6.30
2023-02-28T12:27:11.617Z,6.70
2023-02-28T12:28:16.505Z,5.60
2023-02-28T12:29:26.353Z,6.00
2023-02-28T12:30:34.207Z,5.80
2023-02-28T12:31:42.157Z,7.20
2023-02-28T12:32:51.858Z,6.70
2023-02-28T12:34:01.055Z,5.30
2023-02-28T12:35:32.311Z,6.10
2023-02-28T12:36:35.988Z,5.60
2023-02-28T12:37:43.359Z,7.50
2023-02-28T12:38:49.899Z,5.70
2023-02-28T12:40:00.067Z,6.00
2023-02-28T12:41:17.043Z,3.90
2023-02-28T12:42:28.926Z,5.50
2023-02-28T12:43:38.342Z,6.30
2023-02-28T12:44:46.966Z,5.30
2023-02-28T12:46:02.938Z,6.10
2023-02-28T12:47:10.199Z,4.70
2023-02-28T12:48:19.994Z,4.20
2023-02-28T12:50:22.774Z,4.70
2023-02-28T12:51:26.241Z,6.30
2023-02-28T12:52:53.945Z,5.20
2023-02-28T12:54:05.286Z,9.00
2023-02-28T12:55:34.320Z,6.80
2023-02-28T12:57:04.264Z,5.30
2023-02-28T12:58:16.918Z,4.00
2023-02-28T12:59:30.412Z,4.60
2023-02-28T13:00:38.559Z,5.70
2023-02-28T13:01:54.487Z,5.60
2023-02-28T13:03:25.756Z,5.50
2023-02-28T13:05:04.855Z,4.50
2023-02-28T13:06:34.858Z,3.80
2023-02-28T13:08:06.961Z,5.70
2023-02-28T13:09:14.396Z,3.90
2023-02-28T13:10:16.978Z,5.20
2023-02-28T13:11:42.084Z,3.80
2023-02-28T13:12:52.267Z,3.30
2023-02-28T13:14:02.577Z,5.90
2023-02-28T13:15:17.110Z,4.80
2023-02-28T13:16:18.663Z,4.60
2023-02-28T13:17:22.034Z,5.50
2023-02-28T13:18:43.062Z,4.80
2023-02-28T13:19:52.790Z,5.20
2023-02-28T13:20:54.426Z,5.20
2023-02-28T13:21:56.807Z,6.50
2023-02-28T13:22:58.516Z,5.70
2023-02-28T13:24:02.856Z,4.80
2023-02-28T13:25:33.852Z,3.80
2023-02-28T13:26:38.758Z,3.60
2023-02-28T13:27:42.102Z,6.20
2023-02-28T13:28:54.107Z,3.90
2023-02-28T13:29:55.645Z,5.50
2023-02-28T13:30:58.927Z,3.80
2023-02-28T13:32:06.401Z,5.10
2023-02-28T13:33:27.344Z,4.30
2023-02-28T13:34:28.821Z,4.40
2023-02-28T13:35:43.598Z,3.50
2023-02-28T13:36:45.315Z,4.50
2023-02-28T13:37:50.320Z,4.40
2023-02-28T13:38:55.644Z,3.70
2023-02-28T13:40:07.307Z,3.40
2023-02-28T13:41:41.832Z,4.30
2023-02-28T13:42:44.654Z,4.40
2023-02-28T13:44:07.285Z,4.50
2023-02-28T13:45:11.827Z,4.30
2023-02-28T13:46:14.038Z,4.00
2023-02-28T13:47:28.241Z,4.20
2023-02-28T13:48:30.436Z,5.40
2023-02-28T13:49:34.286Z,4.20
2023-02-28T13:50:38.193Z,6.30
2023-02-28T13:51:47.077Z,5.80
2023-02-28T13:53:17.337Z,7.20
2023-02-28T13:55:03.686Z,4.80
2023-02-28T13:56:33.344Z,5.60
2023-02-28T13:58:01.148Z,4.70
2023-02-28T13:59:19.697Z,6.60
2023-02-28T14:00:30.815Z,5.50
2023-02-28T14:01:51.489Z,5.90
2023-02-28T14:03:11.612Z,6.10
2023-02-28T14:04:32.576Z,5.20
2023-02-28T14:05:36.640Z,4.90
2023-02-28T14:06:40.010Z,5.30
2023-02-28T14:07:47.935Z,4.90
2023-02-28T14:08:55.618Z,5.60
2023-02-28T14:10:05.664Z,5.70
2023-02-28T14:11:25.263Z,4.60
2023-02-28T14:12:56.494Z,5.00
2023-02-28T14:13:59.194Z,6.80
2023-02-28T14:15:00.709Z,4.60
2023-02-28T14:16:04.174Z,5.40
2023-02-28T14:17:14.006Z,6.20
2023-02-28T14:18:32.244Z,5.60
2023-02-28T14:19:38.084Z,6.30
2023-02-28T14:20:40.892Z,5.60
2023-02-28T14:22:01.742Z,6.70
2023-02-28T14:23:09.128Z,6.20
2023-02-28T14:24:32.864Z,6.60
2023-02-28T14:25:56.731Z,5.40
2023-02-28T14:27:04.589Z,4.50
2023-02-28T14:28:35.810Z,5.60
2023-02-28T14:30:12.486Z,4.70
2023-02-28T14:31:59.219Z,6.80
2023-02-28T14:33:22.515Z,5.40
2023-02-28T14:34:46.227Z,5.30
2023-02-28T14:36:09.796Z,5.20
2023-02-28T14:37:24.207Z,5.80
2023-02-28T14:38:30.342Z,5.50
2023-02-28T14:39:33.084Z,6.10